createdAt,value
2018-11-29T00:01:19.692Z,1.93
2018-11-29T00:03:49.184Z,1.97
2018-11-29T00:06:18.641Z,2.00
2018-11-29T00:08:48.114Z,1.98
2018-11-29T00:11:17.513Z,1.98
2018-11-29T00:13:46.941Z,2.02
2018-11-29T00:16:16.394Z,1.97
2018-11-29T00:18:45.802Z,2.03
2018-11-29T00:21:15.211Z,1.96
2018-11-29T00:23:44.627Z,1.96
2018-11-29T00:26:14.082Z,1.98
2018-11-29T00:28:43.495Z,1.86
2018-11-29T00:31:12.982Z,1.83
2018-11-29T00:33:42.481Z,1.74
2018-11-29T00:36:11.912Z,1.69
2018-11-29T00:38:41.312Z,1.70
2018-11-29T00:41:10.726Z,1.73
2018-11-29T00:43:40.164Z,1.63
2018-11-29T00:46:09.656Z,1.63
2018-11-29T00:48:39.065Z,1.61
2018-11-29T00:51:08.465Z,1.66
2018-11-29T00:53:37.934Z,1.74
2018-11-29T00:56:07.359Z,1.69
2018-11-29T00:58:36.838Z,1.67
2018-11-29T01:01:06.553Z,1.67
2018-11-29T01:03:35.940Z,1.67
2018-11-29T01:06:05.651Z,1.69
2018-11-29T01:08:35.129Z,1.68
2018-11-29T01:11:04.574Z,1.69
2018-11-29T01:13:34.008Z,1.60
2018-11-29T01:16:03.479Z,1.64
2018-11-29T01:18:32.941Z,1.61
2018-11-29T01:21:02.390Z,1.71
2018-11-29T01:23:32.109Z,1.72
2018-11-29T01:26:01.577Z,1.73
2018-11-29T01:28:31.020Z,1.67
2018-11-29T01:31:00.518Z,1.73
2018-11-29T01:33:30.077Z,1.71
2018-11-29T01:35:59.509Z,1.74
2018-11-29T01:38:28.968Z,1.77
2018-11-29T01:40:58.390Z,1.77
2018-11-29T01:43:27.793Z,1.74
2018-11-29T01:45:57.290Z,1.76
2018-11-29T01:48:26.753Z,1.73
2018-11-29T01:50:56.210Z,1.76
2018-11-29T01:53:25.762Z,1.80
2018-11-29T01:55:55.257Z,1.81
2018-11-29T01:58:24.755Z,1.78
2018-11-29T02:00:55.116Z,1.85
2018-11-29T02:03:24.649Z,1.82
2018-11-29T02:05:54.083Z,1.86
2018-11-29T02:08:23.607Z,1.85
2018-11-29T02:10:53.059Z,1.91
2018-11-29T02:13:22.509Z,1.86
2018-11-29T02:15:51.970Z,1.95
2018-11-29T02:18:21.448Z,1.84
2018-11-29T02:20:50.862Z,1.87
2018-11-29T02:23:20.370Z,1.85
2018-11-29T02:25:49.848Z,1.81
2018-11-29T02:28:19.351Z,1.80
2018-11-29T02:30:48.829Z,1.83
2018-11-29T02:33:18.315Z,1.83
2018-11-29T02:35:47.733Z,1.88
2018-11-29T02:38:17.217Z,1.98
2018-11-29T02:40:46.710Z,1.90
2018-11-29T02:43:16.181Z,1.92
2018-11-29T02:45:45.661Z,1.96
2018-11-29T02:48:15.118Z,1.94
2018-11-29T02:50:44.567Z,1.93
2018-11-29T02:53:14.015Z,2.03
2018-11-29T02:55:43.604Z,1.96
2018-11-29T02:58:13.303Z,1.92
2018-11-29T03:00:42.803Z,1.90
2018-11-29T03:03:12.240Z,1.88
2018-11-29T03:05:41.699Z,1.85
2018-11-29T03:08:11.511Z,1.78
2018-11-29T03:10:40.992Z,1.73
2018-11-29T03:13:10.440Z,1.61
2018-11-29T03:15:39.872Z,1.50
2018-11-29T03:18:09.419Z,1.46
2018-11-29T03:20:38.886Z,1.38
2018-11-29T03:23:08.345Z,1.34
2018-11-29T03:25:37.790Z,1.28
2018-11-29T03:28:07.587Z,1.30
2018-11-29T03:30:37.061Z,1.32
2018-11-29T03:33:06.624Z,1.22
2018-11-29T03:35:36.143Z,1.23
2018-11-29T03:38:05.678Z,1.30
2018-11-29T03:40:35.253Z,1.38
2018-11-29T03:43:04.675Z,1.26
2018-11-29T03:45:34.083Z,1.28
2018-11-29T03:48:03.456Z,1.32
2018-11-29T03:50:32.995Z,1.26
2018-11-29T03:53:02.376Z,1.34
2018-11-29T03:55:31.815Z,1.34
2018-11-29T03:58:01.262Z,1.38
2018-11-29T04:00:30.746Z,1.43
2018-11-29T04:03:00.166Z,1.35
2018-11-29T04:05:29.597Z,1.32
2018-11-29T04:07:59.044Z,1.32
2018-11-29T04:10:28.466Z,1.31
2018-11-29T04:12:57.937Z,1.26
2018-11-29T04:15:27.386Z,1.28
2018-11-29T04:17:56.865Z,1.28
2018-11-29T04:20:26.365Z,1.21
2018-11-29T04:22:55.762Z,1.19
2018-11-29T04:25:25.248Z,1.19
2018-11-29T04:27:54.761Z,1.16
2018-11-29T04:30:24.227Z,1.17
2018-11-29T04:32:53.684Z,1.23
2018-11-29T04:35:23.300Z,1.19
2018-11-29T04:37:52.786Z,1.11
2018-11-29T04:40:22.304Z,1.23
2018-11-29T04:42:51.857Z,1.20
2018-11-29T04:45:21.700Z,1.23
2018-11-29T04:47:51.239Z,1.21
2018-11-29T04:50:20.648Z,1.16
2018-11-29T04:52:50.270Z,1.13
2018-11-29T04:55:19.742Z,1.22
2018-11-29T04:57:49.194Z,1.11
2018-11-29T05:00:18.697Z,1.08
2018-11-29T05:02:48.167Z,1.13
2018-11-29T05:05:17.619Z,1.12
2018-11-29T05:07:47.545Z,1.12
2018-11-29T05:10:17.876Z,1.17
2018-11-29T05:12:48.140Z,1.23
2018-11-29T05:15:17.576Z,1.15
2018-11-29T05:17:47.347Z,1.19
2018-11-29T05:20:16.802Z,1.20
2018-11-29T05:22:46.201Z,1.17
2018-11-29T05:25:17.036Z,1.19
2018-11-29T05:27:45.091Z,1.19
2018-11-29T05:30:15.426Z,1.19
2018-11-29T05:32:44.913Z,1.13
2018-11-29T05:35:14.489Z,1.18
2018-11-29T05:37:44.027Z,1.26
2018-11-29T05:40:14.523Z,1.25
2018-11-29T05:42:44.242Z,1.28
2018-11-29T05:45:13.667Z,1.31
2018-11-29T05:47:43.241Z,1.29
2018-11-29T05:50:13.439Z,1.22
2018-11-29T05:52:42.899Z,1.24
2018-11-29T05:55:12.936Z,1.24
2018-11-29T05:57:42.384Z,1.16
2018-11-29T06:00:14.798Z,1.17
2018-11-29T06:02:44.777Z,1.18
2018-11-29T06:05:16.122Z,1.14
2018-11-29T06:07:45.508Z,1.20
2018-11-29T06:10:17.876Z,1.24
2018-11-29T06:12:48.041Z,1.35
2018-11-29T06:15:17.457Z,1.24
2018-11-29T06:17:46.870Z,1.24
2018-11-29T06:20:18.509Z,1.25
2018-11-29T06:22:48.035Z,1.28
2018-11-29T06:25:17.759Z,1.25
2018-11-29T06:27:47.177Z,1.20
2018-11-29T06:30:19.338Z,1.27
2018-11-29T06:32:49.849Z,1.25
2018-11-29T06:35:19.382Z,1.29
2018-11-29T06:37:48.882Z,1.24
2018-11-29T06:40:18.902Z,1.30
2018-11-29T06:42:48.306Z,1.29
2018-11-29T06:45:19.370Z,1.34
2018-11-29T06:47:50.150Z,1.26
2018-11-29T06:50:19.883Z,1.28
2018-11-29T06:52:51.696Z,1.34
2018-11-29T06:55:23.734Z,1.32
2018-11-29T06:57:53.945Z,1.30
2018-11-29T07:00:29.453Z,1.32
2018-11-29T07:02:58.959Z,1.34
2018-11-29T07:05:28.449Z,1.36
2018-11-29T07:07:57.885Z,1.40
2018-11-29T07:10:32.290Z,1.45
2018-11-29T07:13:02.614Z,1.42
2018-11-29T07:15:32.001Z,1.39
2018-11-29T07:18:01.416Z,1.49
2018-11-29T07:20:31.076Z,1.48
2018-11-29T07:23:00.430Z,1.47
2018-11-29T07:25:29.841Z,1.47
2018-11-29T07:27:59.220Z,1.54
2018-11-29T07:30:28.616Z,1.51
2018-11-29T07:32:57.995Z,1.55
2018-11-29T07:35:27.428Z,1.57
2018-11-29T07:37:56.930Z,1.59
2018-11-29T07:40:26.317Z,1.61
2018-11-29T07:42:56.214Z,1.64
2018-11-29T07:45:25.601Z,1.71
2018-11-29T07:47:55.012Z,1.70
2018-11-29T07:50:24.919Z,1.70
2018-11-29T07:52:54.308Z,1.69
2018-11-29T07:55:23.795Z,1.81
2018-11-29T07:57:54.194Z,1.78
2018-11-29T08:00:23.612Z,1.84
2018-11-29T08:02:52.992Z,1.80
2018-11-29T08:05:22.437Z,1.82
2018-11-29T08:07:51.813Z,1.83
2018-11-29T08:10:21.430Z,1.87
2018-11-29T08:12:50.943Z,1.83
2018-11-29T08:15:22.270Z,1.87
2018-11-29T08:17:51.726Z,1.94
2018-11-29T08:20:22.281Z,1.91
2018-11-29T08:22:51.750Z,1.98
2018-11-29T08:25:21.185Z,2.02
2018-11-29T08:27:50.612Z,2.02
2018-11-29T08:30:20.070Z,1.93
2018-11-29T08:32:49.495Z,2.02
2018-11-29T08:35:18.941Z,1.98
2018-11-29T08:37:48.741Z,2.04
2018-11-29T08:40:19.851Z,2.03
2018-11-29T08:42:49.354Z,2.01
2018-11-29T08:45:18.835Z,2.11
2018-11-29T08:47:48.298Z,2.18
2018-11-29T08:50:17.974Z,2.11
2018-11-29T08:52:47.980Z,2.17
2018-11-29T08:55:19.943Z,2.12
2018-11-29T08:57:50.206Z,2.15
2018-11-29T09:00:22.429Z,2.18
2018-11-29T09:02:51.845Z,2.14
2018-11-29T09:05:21.424Z,2.22
2018-11-29T09:07:51.133Z,2.31
2018-11-29T09:10:22.378Z,2.24
2018-11-29T09:12:52.030Z,2.20
2018-11-29T09:15:21.489Z,2.25
2018-11-29T09:17:50.907Z,2.31
2018-11-29T09:20:22.578Z,2.34
2018-11-29T09:22:51.977Z,2.39
2018-11-29T09:25:22.858Z,2.36
2018-11-29T09:27:52.257Z,2.45
2018-11-29T09:30:23.649Z,2.47
2018-11-29T09:32:54.475Z,2.45
2018-11-29T09:35:23.934Z,2.52
2018-11-29T09:37:53.346Z,2.55
2018-11-29T09:40:22.779Z,2.47
2018-11-29T09:42:52.319Z,2.53
2018-11-29T09:45:23.008Z,2.62
2018-11-29T09:47:56.604Z,2.72
2018-11-29T09:50:26.791Z,2.72
2018-11-29T09:52:56.229Z,2.71
2018-11-29T09:55:25.699Z,2.82
2018-11-29T09:57:55.087Z,2.81
2018-11-29T10:00:28.006Z,2.93
2018-11-29T10:03:13.634Z,2.85
2018-11-29T10:05:45.044Z,2.83
2018-11-29T10:08:17.293Z,2.91
2018-11-29T10:10:46.729Z,2.75
2018-11-29T10:13:16.141Z,2.77
2018-11-29T10:15:45.538Z,2.79
2018-11-29T10:18:14.995Z,2.83
2018-11-29T10:20:44.365Z,2.84
2018-11-29T10:23:13.914Z,2.81
2018-11-29T10:25:43.383Z,2.81
2018-11-29T10:28:15.769Z,2.78
2018-11-29T10:30:53.107Z,2.82
2018-11-29T10:33:22.500Z,2.85
2018-11-29T10:35:58.717Z,2.86
2018-11-29T10:38:21.431Z,2.87
2018-11-29T10:40:50.864Z,2.87
2018-11-29T10:43:20.274Z,2.87
2018-11-29T10:45:49.692Z,2.97
2018-11-29T10:48:21.551Z,2.95
2018-11-29T10:50:51.009Z,2.91
2018-11-29T10:53:20.449Z,2.89
2018-11-29T10:55:49.895Z,2.92
2018-11-29T10:58:19.371Z,2.97
2018-11-29T11:01:56.026Z,3.01
2018-11-29T11:04:25.448Z,2.98
2018-11-29T11:06:54.859Z,3.07
2018-11-29T11:09:24.265Z,3.04
2018-11-29T11:11:53.678Z,3.07
2018-11-29T11:14:23.101Z,3.09
2018-11-29T11:16:52.513Z,3.09
2018-11-29T11:19:21.961Z,3.05
2018-11-29T11:21:51.432Z,3.08
2018-11-29T11:24:20.842Z,3.27
2018-11-29T11:26:50.312Z,3.23
2018-11-29T11:29:20.311Z,3.29
2018-11-29T11:31:49.695Z,3.31
2018-11-29T11:34:19.132Z,3.40
2018-11-29T11:36:48.504Z,3.45
2018-11-29T11:39:17.970Z,3.45
2018-11-29T11:41:47.372Z,3.50
2018-11-29T11:44:16.762Z,3.47
2018-11-29T11:46:46.174Z,3.57
2018-11-29T11:49:15.560Z,3.57
2018-11-29T11:51:44.943Z,3.52
2018-11-29T11:54:14.311Z,3.52
2018-11-29T11:56:43.730Z,3.47
2018-11-29T11:59:13.165Z,3.48
2018-11-29T12:01:42.582Z,3.52
2018-11-29T12:04:12.019Z,3.54
2018-11-29T12:06:41.464Z,3.55
2018-11-29T12:09:10.880Z,3.62
2018-11-29T12:11:40.350Z,3.59
2018-11-29T12:14:09.807Z,3.60
2018-11-29T12:16:39.383Z,3.52
2018-11-29T12:19:08.830Z,3.52
2018-11-29T12:21:38.331Z,3.52
2018-11-29T12:24:08.062Z,3.58
2018-11-29T12:26:37.514Z,3.51
2018-11-29T12:29:07.989Z,3.53
2018-11-29T12:31:37.418Z,3.42
2018-11-29T12:34:07.198Z,3.52
2018-11-29T12:36:36.624Z,3.50
2018-11-29T12:39:10.102Z,3.55
2018-11-29T12:41:39.514Z,3.55
2018-11-29T12:44:08.945Z,3.53
2018-11-29T12:46:38.410Z,3.58
2018-11-29T12:49:07.855Z,3.55
2018-11-29T12:51:37.312Z,3.54
2018-11-29T12:54:07.681Z,3.57
2018-11-29T12:56:37.089Z,3.57
2018-11-29T12:59:06.762Z,3.58
2018-11-29T13:01:36.220Z,3.62
2018-11-29T13:04:05.704Z,3.63
2018-11-29T13:06:35.169Z,3.71
2018-11-29T13:09:09.773Z,3.75
2018-11-29T13:11:39.239Z,3.76
2018-11-29T13:14:08.698Z,3.84
2018-11-29T13:16:38.095Z,3.71
2018-11-29T13:19:07.614Z,3.74
2018-11-29T13:21:37.119Z,3.87
2018-11-29T13:24:06.625Z,3.79
2018-11-29T13:26:36.150Z,3.79
2018-11-29T13:29:05.722Z,3.79
2018-11-29T13:31:35.122Z,3.84
2018-11-29T13:34:04.536Z,3.84
2018-11-29T13:36:33.972Z,3.86
2018-11-29T13:39:03.630Z,3.83
2018-11-29T13:41:33.069Z,3.85
2018-11-29T13:44:02.481Z,3.87
2018-11-29T13:46:31.897Z,3.95
2018-11-29T13:49:01.429Z,3.94
2018-11-29T13:51:30.841Z,3.91
2018-11-29T13:54:01.169Z,3.96
2018-11-29T13:56:29.723Z,3.93
2018-11-29T13:58:59.121Z,3.97
2018-11-29T14:01:28.571Z,3.89
2018-11-29T14:03:58.037Z,3.90
2018-11-29T14:06:27.471Z,3.87
2018-11-29T14:08:56.928Z,3.90
2018-11-29T14:11:26.381Z,3.91
2018-11-29T14:13:55.789Z,3.86
2018-11-29T14:16:25.197Z,3.84
2018-11-29T14:18:54.657Z,3.91
2018-11-29T14:21:24.130Z,3.95
2018-11-29T14:23:53.508Z,3.92
2018-11-29T14:26:22.927Z,3.90
2018-11-29T14:28:52.329Z,3.84
2018-11-29T14:31:21.769Z,3.83
2018-11-29T14:33:51.178Z,3.82
2018-11-29T14:36:20.593Z,3.82
2018-11-29T14:38:50.022Z,3.85
2018-11-29T14:41:19.666Z,3.86
2018-11-29T14:43:49.098Z,3.82
2018-11-29T14:46:18.539Z,3.81
2018-11-29T14:48:48.025Z,3.76
2018-11-29T14:51:17.400Z,3.83
2018-11-29T14:53:46.849Z,3.79
2018-11-29T14:56:16.280Z,3.89
2018-11-29T14:58:46.102Z,3.79
2018-11-29T15:01:15.634Z,3.70
2018-11-29T15:03:45.110Z,3.78
2018-11-29T15:06:14.589Z,3.83
2018-11-29T15:08:44.006Z,3.77
2018-11-29T15:11:13.461Z,3.81
2018-11-29T15:13:42.925Z,3.73
2018-11-29T15:16:12.434Z,3.75
2018-11-29T15:18:41.968Z,3.80
2018-11-29T15:21:11.413Z,3.85
2018-11-29T15:23:40.842Z,3.76
2018-11-29T15:26:10.444Z,3.73
2018-11-29T15:28:39.844Z,3.74
2018-11-29T15:31:09.319Z,3.72
2018-11-29T15:33:38.780Z,3.74
2018-11-29T15:36:08.173Z,3.67
2018-11-29T15:38:37.669Z,3.72
2018-11-29T15:41:07.221Z,3.71
2018-11-29T15:43:36.997Z,3.77
2018-11-29T15:46:06.926Z,3.81
2018-11-29T15:48:36.429Z,3.79
2018-11-29T15:51:06.479Z,3.79
2018-11-29T15:53:36.004Z,3.75
2018-11-29T15:56:05.606Z,3.87
2018-11-29T15:58:35.105Z,3.86
2018-11-29T16:01:04.706Z,3.77
2018-11-29T16:03:34.131Z,3.78
2018-11-29T16:06:03.617Z,3.88
2018-11-29T16:08:33.155Z,3.85
2018-11-29T16:11:02.682Z,3.79
2018-11-29T16:13:32.215Z,3.74
2018-11-29T16:16:01.691Z,3.83
2018-11-29T16:18:31.192Z,3.89
2018-11-29T16:21:00.703Z,3.87
2018-11-29T16:23:30.234Z,3.93
2018-11-29T16:25:59.760Z,3.92
2018-11-29T16:28:29.329Z,3.98
2018-11-29T16:30:59.805Z,4.06
2018-11-29T16:33:33.886Z,4.02
2018-11-29T16:36:03.450Z,3.97
2018-11-29T16:38:33.280Z,4.02
2018-11-29T16:41:02.747Z,3.97
2018-11-29T16:43:32.293Z,4.03
2018-11-29T16:46:01.710Z,4.04
2018-11-29T16:48:31.183Z,3.95
2018-11-29T16:51:01.710Z,4.03
2018-11-29T16:53:31.208Z,4.04
2018-11-29T16:56:01.025Z,4.05
2018-11-29T16:58:31.684Z,4.00
2018-11-29T17:01:01.460Z,4.07
2018-11-29T17:03:32.126Z,4.08
2018-11-29T17:06:02.499Z,4.07
2018-11-29T17:08:34.045Z,4.06
2018-11-29T17:11:04.063Z,4.06
2018-11-29T17:13:34.809Z,4.08
2018-11-29T17:16:04.997Z,4.06
2018-11-29T17:18:35.060Z,4.11
2018-11-29T17:21:05.731Z,4.14
2018-11-29T17:23:35.808Z,4.11
2018-11-29T17:26:07.006Z,3.14
2018-11-29T17:28:37.037Z,4.09
2018-11-29T17:31:07.230Z,4.08
2018-11-29T17:33:37.206Z,4.05
2018-11-29T17:36:07.266Z,4.11
2018-11-29T17:38:37.594Z,4.12
2018-11-29T17:41:10.414Z,4.14
2018-11-29T17:43:40.010Z,4.11
2018-11-29T17:46:09.481Z,4.12
2018-11-29T17:48:38.975Z,4.12
2018-11-29T17:51:08.680Z,4.13
2018-11-29T17:53:39.083Z,4.25
2018-11-29T17:56:08.784Z,4.27
2018-11-29T17:58:39.041Z,4.21
2018-11-29T18:01:08.853Z,4.25
2018-11-29T18:03:38.460Z,4.34
2018-11-29T18:06:08.605Z,4.31
2018-11-29T18:08:38.149Z,4.30
2018-11-29T18:11:09.478Z,4.33
2018-11-29T18:13:41.069Z,4.28
2018-11-29T18:16:10.764Z,4.20
2018-11-29T18:18:40.436Z,4.18
2018-11-29T18:21:09.877Z,4.20
2018-11-29T18:23:39.318Z,4.28
2018-11-29T18:26:08.806Z,4.18
2018-11-29T18:28:38.292Z,4.25
2018-11-29T18:31:07.785Z,4.22
2018-11-29T18:33:37.243Z,4.32
2018-11-29T18:36:07.209Z,4.36
2018-11-29T18:38:36.671Z,4.34
2018-11-29T18:41:06.375Z,4.37
2018-11-29T18:43:35.942Z,4.48
2018-11-29T18:46:05.663Z,4.41
2018-11-29T18:48:35.244Z,4.41
2018-11-29T18:51:04.761Z,4.40
2018-11-29T18:53:34.470Z,4.43
2018-11-29T18:56:04.244Z,4.50
2018-11-29T18:58:33.814Z,4.56
2018-11-29T19:01:03.299Z,4.54
2018-11-29T19:03:32.814Z,4.59
2018-11-29T19:06:02.401Z,4.57
2018-11-29T19:08:31.913Z,4.55
2018-11-29T19:11:04.755Z,4.50
2018-11-29T19:13:34.421Z,4.48
2018-11-29T19:16:03.967Z,4.51
2018-11-29T19:18:33.492Z,4.50
2018-11-29T19:21:03.525Z,4.50
2018-11-29T19:23:32.986Z,4.49
2018-11-29T19:26:02.581Z,4.51
2018-11-29T19:28:32.138Z,4.50
2018-11-29T19:31:01.810Z,4.48
2018-11-29T19:33:32.024Z,4.55
2018-11-29T19:36:01.599Z,4.52
2018-11-29T19:38:31.102Z,4.51
2018-11-29T19:41:00.888Z,4.53
2018-11-29T19:43:30.432Z,4.51
2018-11-29T19:45:59.914Z,4.52
2018-11-29T19:48:29.674Z,4.53
2018-11-29T19:50:59.345Z,4.55
2018-11-29T19:53:28.998Z,4.49
2018-11-29T19:56:01.681Z,4.49
2018-11-29T19:58:31.312Z,4.46
2018-11-29T20:01:00.935Z,4.48
2018-11-29T20:03:31.099Z,4.54
2018-11-29T20:06:00.812Z,4.54
2018-11-29T20:08:30.427Z,4.63
2018-11-29T20:11:00.027Z,4.56
2018-11-29T20:13:29.738Z,4.58
2018-11-29T20:15:59.427Z,4.53
2018-11-29T20:18:29.582Z,4.53
2018-11-29T20:20:59.256Z,4.50
2018-11-29T20:23:28.955Z,4.54
2018-11-29T20:25:58.460Z,4.57
2018-11-29T20:28:28.070Z,4.67
2018-11-29T20:30:58.412Z,4.72
2018-11-29T20:33:27.949Z,4.76
2018-11-29T20:35:57.485Z,4.85
2018-11-29T20:38:27.021Z,4.88
2018-11-29T20:40:56.668Z,4.89
2018-11-29T20:43:26.487Z,4.91
2018-11-29T20:45:56.977Z,4.95
2018-11-29T20:48:31.167Z,5.00
2018-11-29T20:51:01.689Z,5.18
2018-11-29T20:53:34.798Z,5.23
2018-11-29T20:56:06.310Z,5.15
2018-11-29T20:58:35.760Z,5.16
2018-11-29T21:01:06.143Z,5.14
2018-11-29T21:03:35.653Z,5.15
2018-11-29T21:06:06.070Z,5.24
2018-11-29T21:08:35.610Z,5.18
2018-11-29T21:11:05.301Z,5.18
2018-11-29T21:13:34.924Z,5.12
2018-11-29T21:16:04.432Z,5.12
2018-11-29T21:18:34.416Z,5.09
2018-11-29T21:21:04.650Z,5.06
2018-11-29T21:23:34.774Z,5.07
2018-11-29T21:26:04.355Z,5.09
2018-11-29T21:28:36.076Z,5.13
2018-11-29T21:31:14.943Z,5.07
2018-11-29T21:33:44.772Z,5.00
2018-11-29T21:36:14.673Z,5.05
2018-11-29T21:38:44.971Z,5.04
2018-11-29T21:41:14.611Z,4.99
2018-11-29T21:43:45.054Z,5.06
2018-11-29T21:46:14.864Z,5.02
2018-11-29T21:48:44.438Z,5.00
2018-11-29T21:51:13.916Z,5.03
2018-11-29T21:53:43.400Z,5.02
2018-11-29T21:56:12.997Z,5.02
2018-11-29T21:58:42.525Z,5.00
2018-11-29T22:01:12.290Z,4.92
2018-11-29T22:03:41.791Z,4.93
2018-11-29T22:06:11.349Z,4.93
2018-11-29T22:08:41.021Z,4.97
2018-11-29T22:11:10.604Z,4.93
2018-11-29T22:13:40.164Z,4.93
2018-11-29T22:16:10.020Z,4.87
2018-11-29T22:18:39.601Z,4.85
2018-11-29T22:21:09.537Z,4.82
2018-11-29T22:23:40.727Z,4.78
2018-11-29T22:26:14.347Z,4.73
2018-11-29T22:28:44.276Z,4.71
2018-11-29T22:31:13.769Z,4.65
2018-11-29T22:33:44.289Z,4.71
2018-11-29T22:36:14.296Z,4.65
2018-11-29T22:38:45.351Z,4.61
2018-11-29T22:41:15.148Z,4.57
2018-11-29T22:43:44.602Z,4.59
2018-11-29T22:46:14.166Z,4.63
2018-11-29T22:48:43.778Z,4.62
2018-11-29T22:51:13.381Z,4.78
2018-11-29T22:53:42.979Z,4.76
2018-11-29T22:56:12.521Z,4.88
2018-11-29T22:58:42.078Z,5.03
2018-11-29T23:01:16.732Z,4.92
2018-11-29T23:03:46.296Z,4.97
2018-11-29T23:06:15.796Z,5.03
2018-11-29T23:08:45.333Z,5.06
2018-11-29T23:11:15.066Z,5.10
2018-11-29T23:13:44.714Z,5.02
2018-11-29T23:16:14.244Z,5.03
2018-11-29T23:18:43.876Z,4.99
2018-11-29T23:21:17.344Z,4.95
2018-11-29T23:23:47.254Z,5.00
2018-11-29T23:26:16.754Z,4.96
2018-11-29T23:28:46.302Z,5.07
2018-11-29T23:31:16.531Z,5.07
2018-11-29T23:33:46.282Z,5.07
2018-11-29T23:36:15.780Z,5.03
2018-11-29T23:38:45.431Z,5.12
2018-11-29T23:41:14.987Z,5.14
2018-11-29T23:43:44.513Z,5.08
2018-11-29T23:46:14.067Z,5.15
2018-11-29T23:48:43.601Z,5.16
2018-11-29T23:51:15.582Z,5.13
2018-11-29T23:53:45.415Z,5.19
2018-11-29T23:56:14.955Z,5.28
2018-11-29T23:58:44.459Z,5.29
